sensor_id;sensor_type;location;lat;lon;timestamp;P1;durP1;ratioP1;P2;durP2;ratioP2
13331;SDS011;6735;51.456;12.626;2024-01-30T00:01:42;6.40;;;4.70;;
13331;SDS011;6735;51.456;12.626;2024-01-30T00:04:08;6.07;;;4.03;;
13331;SDS011;6735;51.456;12.626;2024-01-30T00:06:33;6.57;;;4.70;;
13331;SDS011;6735;51.456;12.626;2024-01-30T00:08:58;4.67;;;4.00;;
13331;SDS011;6735;51.456;12.626;2024-01-30T00:11:24;7.53;;;5.30;;
13331;SDS011;6735;51.456;12.626;2024-01-30T00:13:53;5.50;;;4.43;;
13331;SDS011;6735;51.456;12.626;2024-01-30T00:16:21;5.90;;;4.87;;
13331;SDS011;6735;51.456;12.626;2024-01-30T00:18:49;8.33;;;5.13;;
13331;SDS011;6735;51.456;12.626;2024-01-30T00:21:15;7.47;;;4.50;;
13331;SDS011;6735;51.456;12.626;2024-01-30T00:23:40;6.63;;;5.00;;
13331;SDS011;6735;51.456;12.626;2024-01-30T00:26:06;7.87;;;4.60;;
13331;SDS011;6735;51.456;12.626;2024-01-30T00:28:31;6.90;;;4.50;;
13331;SDS011;6735;51.456;12.626;2024-01-30T00:30:57;6.27;;;5.00;;
13331;SDS011;6735;51.456;12.626;2024-01-30T00:33:22;5.60;;;4.60;;
13331;SDS011;6735;51.456;12.626;2024-01-30T00:35:48;5.77;;;4.60;;
13331;SDS011;6735;51.456;12.626;2024-01-30T00:38:13;5.37;;;4.43;;
13331;SDS011;6735;51.456;12.626;2024-01-30T00:40:39;6.37;;;4.73;;
13331;SDS011;6735;51.456;12.626;2024-01-30T00:43:04;5.63;;;4.60;;
13331;SDS011;6735;51.456;12.626;2024-01-30T00:45:30;6.77;;;4.93;;
13331;SDS011;6735;51.456;12.626;2024-01-30T00:47:56;6.10;;;4.37;;
13331;SDS011;6735;51.456;12.626;2024-01-30T00:50:21;5.47;;;4.70;;
13331;SDS011;6735;51.456;12.626;2024-01-30T00:52:47;5.60;;;4.40;;
13331;SDS011;6735;51.456;12.626;2024-01-30T00:55:12;5.87;;;4.43;;
13331;SDS011;6735;51.456;12.626;2024-01-30T00:57:39;7.27;;;4.70;;
13331;SDS011;6735;51.456;12.626;2024-01-30T01:00:04;7.20;;;5.00;;
13331;SDS011;6735;51.456;12.626;2024-01-30T01:02:33;6.50;;;4.80;;
13331;SDS011;6735;51.456;12.626;2024-01-30T01:04:59;6.90;;;4.50;;
13331;SDS011;6735;51.456;12.626;2024-01-30T01:07:25;6.57;;;4.60;;
13331;SDS011;6735;51.456;12.626;2024-01-30T01:09:50;5.90;;;4.80;;
13331;SDS011;6735;51.456;12.626;2024-01-30T01:12:15;6.80;;;4.60;;
13331;SDS011;6735;51.456;12.626;2024-01-30T01:14:41;7.00;;;4.63;;
13331;SDS011;6735;51.456;12.626;2024-01-30T01:17:07;8.23;;;4.77;;
13331;SDS011;6735;51.456;12.626;2024-01-30T01:19:32;7.57;;;4.57;;
13331;SDS011;6735;51.456;12.626;2024-01-30T01:21:57;7.00;;;5.50;;
13331;SDS011;6735;51.456;12.626;2024-01-30T01:24:23;7.27;;;5.10;;
13331;SDS011;6735;51.456;12.626;2024-01-30T01:26:49;7.17;;;5.27;;
13331;SDS011;6735;51.456;12.626;2024-01-30T01:29:15;8.17;;;5.60;;
13331;SDS011;6735;51.456;12.626;2024-01-30T01:31:41;8.50;;;4.97;;
13331;SDS011;6735;51.456;12.626;2024-01-30T01:34:09;7.50;;;4.93;;
13331;SDS011;6735;51.456;12.626;2024-01-30T01:36:36;7.87;;;4.80;;
13331;SDS011;6735;51.456;12.626;2024-01-30T01:39:01;7.40;;;5.30;;
13331;SDS011;6735;51.456;12.626;2024-01-30T01:41:31;7.87;;;5.20;;
13331;SDS011;6735;51.456;12.626;2024-01-30T01:43:57;7.17;;;5.23;;
13331;SDS011;6735;51.456;12.626;2024-01-30T01:46:25;7.70;;;5.23;;
13331;SDS011;6735;51.456;12.626;2024-01-30T01:48:52;7.03;;;4.53;;
13331;SDS011;6735;51.456;12.626;2024-01-30T01:51:18;5.97;;;5.13;;
13331;SDS011;6735;51.456;12.626;2024-01-30T01:53:44;5.37;;;4.77;;
13331;SDS011;6735;51.456;12.626;2024-01-30T01:56:09;6.10;;;4.73;;
13331;SDS011;6735;51.456;12.626;2024-01-30T01:58:36;7.97;;;5.03;;
13331;SDS011;6735;51.456;12.626;2024-01-30T02:01:02;6.83;;;5.00;;
13331;SDS011;6735;51.456;12.626;2024-01-30T02:03:30;8.10;;;4.77;;
13331;SDS011;6735;51.456;12.626;2024-01-30T02:05:55;7.27;;;4.93;;
13331;SDS011;6735;51.456;12.626;2024-01-30T02:08:21;6.53;;;5.10;;
13331;SDS011;6735;51.456;12.626;2024-01-30T02:10:48;8.93;;;5.20;;
13331;SDS011;6735;51.456;12.626;2024-01-30T02:13:13;8.73;;;5.23;;
13331;SDS011;6735;51.456;12.626;2024-01-30T02:15:39;7.53;;;5.13;;
13331;SDS011;6735;51.456;12.626;2024-01-30T02:18:04;8.80;;;6.10;;
13331;SDS011;6735;51.456;12.626;2024-01-30T02:20:30;6.50;;;4.87;;
13331;SDS011;6735;51.456;12.626;2024-01-30T02:22:58;6.13;;;5.03;;
13331;SDS011;6735;51.456;12.626;2024-01-30T02:25:39;7.43;;;4.77;;
13331;SDS011;6735;51.456;12.626;2024-01-30T02:28:11;8.40;;;5.53;;
13331;SDS011;6735;51.456;12.626;2024-01-30T02:30:38;7.13;;;5.03;;
13331;SDS011;6735;51.456;12.626;2024-01-30T02:33:04;6.73;;;5.10;;
13331;SDS011;6735;51.456;12.626;2024-01-30T02:35:30;8.60;;;5.83;;
13331;SDS011;6735;51.456;12.626;2024-01-30T02:37:55;7.33;;;5.27;;
13331;SDS011;6735;51.456;12.626;2024-01-30T02:40:21;7.57;;;5.00;;
13331;SDS011;6735;51.456;12.626;2024-01-30T02:42:46;6.90;;;5.20;;
13331;SDS011;6735;51.456;12.626;2024-01-30T02:45:12;6.73;;;5.53;;
13331;SDS011;6735;51.456;12.626;2024-01-30T02:47:38;14.37;;;5.40;;
13331;SDS011;6735;51.456;12.626;2024-01-30T02:50:04;7.47;;;5.17;;
13331;SDS011;6735;51.456;12.626;2024-01-30T02:52:30;6.17;;;5.30;;
13331;SDS011;6735;51.456;12.626;2024-01-30T02:54:56;9.13;;;5.43;;
13331;SDS011;6735;51.456;12.626;2024-01-30T02:57:21;8.00;;;5.60;;
13331;SDS011;6735;51.456;12.626;2024-01-30T02:59:47;8.70;;;5.10;;
13331;SDS011;6735;51.456;12.626;2024-01-30T03:02:12;7.17;;;4.97;;
13331;SDS011;6735;51.456;12.626;2024-01-30T03:04:40;6.83;;;4.83;;
13331;SDS011;6735;51.456;12.626;2024-01-30T03:07:06;7.53;;;4.83;;
13331;SDS011;6735;51.456;12.626;2024-01-30T03:09:31;7.00;;;5.30;;
13331;SDS011;6735;51.456;12.626;2024-01-30T03:11:57;7.03;;;4.77;;
13331;SDS011;6735;51.456;12.626;2024-01-30T03:14:22;6.80;;;5.27;;
13331;SDS011;6735;51.456;12.626;2024-01-30T03:16:48;5.70;;;4.90;;
13331;SDS011;6735;51.456;12.626;2024-01-30T03:19:13;7.73;;;5.50;;
13331;SDS011;6735;51.456;12.626;2024-01-30T03:21:38;6.90;;;5.00;;
13331;SDS011;6735;51.456;12.626;2024-01-30T03:24:04;7.30;;;5.07;;
13331;SDS011;6735;51.456;12.626;2024-01-30T03:26:30;7.20;;;5.37;;
13331;SDS011;6735;51.456;12.626;2024-01-30T03:28:55;6.60;;;5.00;;
13331;SDS011;6735;51.456;12.626;2024-01-30T03:31:21;6.07;;;4.77;;
13331;SDS011;6735;51.456;12.626;2024-01-30T03:33:46;7.63;;;5.00;;
13331;SDS011;6735;51.456;12.626;2024-01-30T03:36:12;7.10;;;5.00;;
13331;SDS011;6735;51.456;12.626;2024-01-30T03:38:37;7.23;;;5.10;;
13331;SDS011;6735;51.456;12.626;2024-01-30T03:41:03;6.87;;;4.80;;
13331;SDS011;6735;51.456;12.626;2024-01-30T03:43:32;6.93;;;5.13;;
13331;SDS011;6735;51.456;12.626;2024-01-30T03:45:57;6.53;;;4.70;;
13331;SDS011;6735;51.456;12.626;2024-01-30T03:48:24;6.30;;;5.10;;
13331;SDS011;6735;51.456;12.626;2024-01-30T03:50:50;7.17;;;4.73;;
13331;SDS011;6735;51.456;12.626;2024-01-30T03:53:17;7.07;;;5.10;;
13331;SDS011;6735;51.456;12.626;2024-01-30T03:55:42;6.50;;;4.90;;
13331;SDS011;6735;51.456;12.626;2024-01-30T03:58:08;6.43;;;4.63;;
13331;SDS011;6735;51.456;12.626;2024-01-30T04:00:33;6.90;;;4.73;;
13331;SDS011;6735;51.456;12.626;2024-01-30T04:02:59;7.23;;;4.90;;
13331;SDS011;6735;51.456;12.626;2024-01-30T04:05:24;7.87;;;5.00;;
13331;SDS011;6735;51.456;12.626;2024-01-30T04:07:49;7.23;;;4.57;;
13331;SDS011;6735;51.456;12.626;2024-01-30T04:10:16;8.90;;;6.23;;
13331;SDS011;6735;51.456;12.626;2024-01-30T04:12:41;7.53;;;4.53;;
13331;SDS011;6735;51.456;12.626;2024-01-30T04:15:07;6.03;;;4.33;;
13331;SDS011;6735;51.456;12.626;2024-01-30T04:17:33;5.30;;;4.67;;
13331;SDS011;6735;51.456;12.626;2024-01-30T04:19:58;6.57;;;4.53;;
13331;SDS011;6735;51.456;12.626;2024-01-30T04:22:24;6.07;;;5.07;;
13331;SDS011;6735;51.456;12.626;2024-01-30T04:24:50;7.13;;;4.60;;
13331;SDS011;6735;51.456;12.626;2024-01-30T04:27:15;7.67;;;4.77;;
13331;SDS011;6735;51.456;12.626;2024-01-30T04:29:40;7.07;;;4.93;;
13331;SDS011;6735;51.456;12.626;2024-01-30T04:32:06;5.20;;;4.63;;
13331;SDS011;6735;51.456;12.626;2024-01-30T04:34:32;7.37;;;5.10;;
13331;SDS011;6735;51.456;12.626;2024-01-30T04:36:57;9.50;;;5.00;;
13331;SDS011;6735;51.456;12.626;2024-01-30T04:39:22;7.33;;;5.20;;
13331;SDS011;6735;51.456;12.626;2024-01-30T04:41:48;7.27;;;4.87;;
13331;SDS011;6735;51.456;12.626;2024-01-30T04:44:14;7.57;;;5.00;;
13331;SDS011;6735;51.456;12.626;2024-01-30T04:46:39;6.10;;;4.73;;
13331;SDS011;6735;51.456;12.626;2024-01-30T04:49:05;8.27;;;4.80;;
13331;SDS011;6735;51.456;12.626;2024-01-30T04:51:32;9.70;;;6.07;;
13331;SDS011;6735;51.456;12.626;2024-01-30T04:53:58;8.00;;;5.10;;
13331;SDS011;6735;51.456;12.626;2024-01-30T04:56:23;7.37;;;5.23;;
13331;SDS011;6735;51.456;12.626;2024-01-30T04:58:49;8.00;;;4.80;;
13331;SDS011;6735;51.456;12.626;2024-01-30T05:01:17;8.67;;;5.57;;
13331;SDS011;6735;51.456;12.626;2024-01-30T05:03:43;8.57;;;5.43;;
13331;SDS011;6735;51.456;12.626;2024-01-30T05:06:08;6.70;;;4.90;;
13331;SDS011;6735;51.456;12.626;2024-01-30T05:08:34;7.60;;;4.87;;
13331;SDS011;6735;51.456;12.626;2024-01-30T05:11:01;7.13;;;4.97;;
13331;SDS011;6735;51.456;12.626;2024-01-30T05:13:28;8.63;;;5.03;;
13331;SDS011;6735;51.456;12.626;2024-01-30T05:15:57;10.13;;;5.87;;
13331;SDS011;6735;51.456;12.626;2024-01-30T05:18:22;13.10;;;7.30;;
13331;SDS011;6735;51.456;12.626;2024-01-30T05:20:49;9.63;;;5.57;;
13331;SDS011;6735;51.456;12.626;2024-01-30T05:23:15;7.17;;;5.07;;
13331;SDS011;6735;51.456;12.626;2024-01-30T05:25:41;11.53;;;5.53;;
13331;SDS011;6735;51.456;12.626;2024-01-30T05:28:06;9.53;;;5.30;;
13331;SDS011;6735;51.456;12.626;2024-01-30T05:30:32;7.30;;;5.10;;
13331;SDS011;6735;51.456;12.626;2024-01-30T05:32:57;7.27;;;5.20;;
13331;SDS011;6735;51.456;12.626;2024-01-30T05:35:23;6.67;;;4.67;;
13331;SDS011;6735;51.456;12.626;2024-01-30T05:37:48;8.63;;;5.00;;
13331;SDS011;6735;51.456;12.626;2024-01-30T05:40:16;6.23;;;4.57;;
13331;SDS011;6735;51.456;12.626;2024-01-30T05:42:42;7.77;;;5.17;;
13331;SDS011;6735;51.456;12.626;2024-01-30T05:45:07;4.97;;;4.47;;
13331;SDS011;6735;51.456;12.626;2024-01-30T05:47:34;5.63;;;4.70;;
13331;SDS011;6735;51.456;12.626;2024-01-30T05:50:00;9.07;;;4.70;;
13331;SDS011;6735;51.456;12.626;2024-01-30T05:52:25;8.50;;;4.90;;
13331;SDS011;6735;51.456;12.626;2024-01-30T05:54:51;7.27;;;4.80;;
13331;SDS011;6735;51.456;12.626;2024-01-30T05:57:16;7.90;;;5.43;;
13331;SDS011;6735;51.456;12.626;2024-01-30T05:59:42;7.60;;;4.80;;
13331;SDS011;6735;51.456;12.626;2024-01-30T06:02:08;6.60;;;4.70;;
13331;SDS011;6735;51.456;12.626;2024-01-30T06:04:35;6.87;;;4.70;;
13331;SDS011;6735;51.456;12.626;2024-01-30T06:07:01;6.47;;;5.37;;
13331;SDS011;6735;51.456;12.626;2024-01-30T06:09:27;5.77;;;4.87;;
13331;SDS011;6735;51.456;12.626;2024-01-30T06:11:53;9.13;;;5.23;;
13331;SDS011;6735;51.456;12.626;2024-01-30T06:14:19;7.27;;;4.97;;
13331;SDS011;6735;51.456;12.626;2024-01-30T06:16:44;6.37;;;4.67;;
13331;SDS011;6735;51.456;12.626;2024-01-30T06:19:09;5.47;;;4.50;;
13331;SDS011;6735;51.456;12.626;2024-01-30T06:21:35;8.10;;;4.80;;
13331;SDS011;6735;51.456;12.626;2024-01-30T06:24:03;7.93;;;5.17;;
13331;SDS011;6735;51.456;12.626;2024-01-30T06:26:29;7.77;;;4.77;;
13331;SDS011;6735;51.456;12.626;2024-01-30T06:28:55;8.60;;;4.63;;
13331;SDS011;6735;51.456;12.626;2024-01-30T06:31:20;6.77;;;5.27;;
13331;SDS011;6735;51.456;12.626;2024-01-30T06:33:46;7.57;;;4.90;;
13331;SDS011;6735;51.456;12.626;2024-01-30T06:36:12;7.27;;;4.97;;
13331;SDS011;6735;51.456;12.626;2024-01-30T06:38:37;7.23;;;5.10;;
13331;SDS011;6735;51.456;12.626;2024-01-30T06:41:03;7.43;;;4.90;;
13331;SDS011;6735;51.456;12.626;2024-01-30T06:43:29;7.17;;;5.23;;
13331;SDS011;6735;51.456;12.626;2024-01-30T06:45:54;7.63;;;4.70;;
13331;SDS011;6735;51.456;12.626;2024-01-30T06:48:20;7.43;;;4.70;;
13331;SDS011;6735;51.456;12.626;2024-01-30T06:50:45;7.97;;;4.53;;
13331;SDS011;6735;51.456;12.626;2024-01-30T06:53:11;8.30;;;4.97;;
13331;SDS011;6735;51.456;12.626;2024-01-30T06:55:36;11.13;;;5.50;;
13331;SDS011;6735;51.456;12.626;2024-01-30T06:58:02;7.17;;;5.07;;
13331;SDS011;6735;51.456;12.626;2024-01-30T07:00:27;5.73;;;4.47;;
13331;SDS011;6735;51.456;12.626;2024-01-30T07:02:53;6.30;;;4.67;;
13331;SDS011;6735;51.456;12.626;2024-01-30T07:05:18;6.50;;;4.80;;
13331;SDS011;6735;51.456;12.626;2024-01-30T07:07:44;7.10;;;4.90;;
13331;SDS011;6735;51.456;12.626;2024-01-30T07:10:09;7.73;;;5.00;;
13331;SDS011;6735;51.456;12.626;2024-01-30T07:12:35;9.53;;;5.27;;
13331;SDS011;6735;51.456;12.626;2024-01-30T07:15:00;6.90;;;4.70;;
13331;SDS011;6735;51.456;12.626;2024-01-30T07:17:27;7.40;;;4.70;;
13331;SDS011;6735;51.456;12.626;2024-01-30T07:19:53;5.80;;;4.50;;
13331;SDS011;6735;51.456;12.626;2024-01-30T07:22:18;6.17;;;4.50;;
13331;SDS011;6735;51.456;12.626;2024-01-30T07:24:44;11.50;;;4.97;;
13331;SDS011;6735;51.456;12.626;2024-01-30T07:27:10;7.50;;;4.63;;
13331;SDS011;6735;51.456;12.626;2024-01-30T07:29:35;7.00;;;4.90;;
13331;SDS011;6735;51.456;12.626;2024-01-30T07:32:01;5.23;;;4.53;;
13331;SDS011;6735;51.456;12.626;2024-01-30T07:34:26;9.60;;;4.47;;
13331;SDS011;6735;51.456;12.626;2024-01-30T07:36:52;7.03;;;4.80;;
13331;SDS011;6735;51.456;12.626;2024-01-30T07:39:18;8.27;;;5.17;;
13331;SDS011;6735;51.456;12.626;2024-01-30T07:41:43;6.67;;;4.70;;
13331;SDS011;6735;51.456;12.626;2024-01-30T07:44:08;6.67;;;4.77;;
13331;SDS011;6735;51.456;12.626;2024-01-30T07:46:34;5.90;;;4.87;;
13331;SDS011;6735;51.456;12.626;2024-01-30T07:48:59;7.93;;;5.03;;
13331;SDS011;6735;51.456;12.626;2024-01-30T07:51:25;7.97;;;5.50;;
13331;SDS011;6735;51.456;12.626;2024-01-30T07:53:50;8.33;;;5.20;;
13331;SDS011;6735;51.456;12.626;2024-01-30T07:56:16;5.63;;;4.50;;
13331;SDS011;6735;51.456;12.626;2024-01-30T07:58:41;7.33;;;4.97;;
13331;SDS011;6735;51.456;12.626;2024-01-30T08:01:07;7.90;;;5.43;;
13331;SDS011;6735;51.456;12.626;2024-01-30T08:03:33;7.57;;;4.63;;
13331;SDS011;6735;51.456;12.626;2024-01-30T08:05:59;6.63;;;4.77;;
13331;SDS011;6735;51.456;12.626;2024-01-30T08:08:24;7.27;;;4.50;;
13331;SDS011;6735;51.456;12.626;2024-01-30T08:10:51;8.50;;;5.20;;
13331;SDS011;6735;51.456;12.626;2024-01-30T08:13:16;7.67;;;5.20;;
13331;SDS011;6735;51.456;12.626;2024-01-30T08:15:42;7.53;;;4.83;;
13331;SDS011;6735;51.456;12.626;2024-01-30T08:18:07;8.27;;;5.47;;
13331;SDS011;6735;51.456;12.626;2024-01-30T08:20:33;6.90;;;5.13;;
13331;SDS011;6735;51.456;12.626;2024-01-30T08:22:59;9.03;;;5.10;;
13331;SDS011;6735;51.456;12.626;2024-01-30T08:25:25;7.47;;;5.60;;
13331;SDS011;6735;51.456;12.626;2024-01-30T08:27:51;8.63;;;4.87;;
13331;SDS011;6735;51.456;12.626;2024-01-30T08:30:16;6.97;;;4.80;;
13331;SDS011;6735;51.456;12.626;2024-01-30T08:32:42;10.00;;;5.20;;
13331;SDS011;6735;51.456;12.626;2024-01-30T08:35:07;7.90;;;5.20;;
13331;SDS011;6735;51.456;12.626;2024-01-30T08:37:33;7.97;;;5.17;;
13331;SDS011;6735;51.456;12.626;2024-01-30T08:39:59;7.73;;;4.97;;
13331;SDS011;6735;51.456;12.626;2024-01-30T08:42:25;7.27;;;5.27;;
13331;SDS011;6735;51.456;12.626;2024-01-30T08:44:51;7.63;;;5.07;;
13331;SDS011;6735;51.456;12.626;2024-01-30T08:47:18;7.67;;;5.10;;
13331;SDS011;6735;51.456;12.626;2024-01-30T08:49:43;7.77;;;5.37;;
13331;SDS011;6735;51.456;12.626;2024-01-30T08:52:12;7.67;;;5.47;;
13331;SDS011;6735;51.456;12.626;2024-01-30T08:54:38;6.83;;;5.07;;
13331;SDS011;6735;51.456;12.626;2024-01-30T08:57:03;5.77;;;5.07;;
13331;SDS011;6735;51.456;12.626;2024-01-30T08:59:29;7.30;;;5.67;;
13331;SDS011;6735;51.456;12.626;2024-01-30T09:01:55;8.43;;;6.27;;
13331;SDS011;6735;51.456;12.626;2024-01-30T09:04:22;8.50;;;5.27;;
13331;SDS011;6735;51.456;12.626;2024-01-30T09:06:48;8.40;;;5.47;;
13331;SDS011;6735;51.456;12.626;2024-01-30T09:09:14;8.77;;;5.37;;
13331;SDS011;6735;51.456;12.626;2024-01-30T09:11:39;9.23;;;5.20;;
13331;SDS011;6735;51.456;12.626;2024-01-30T09:14:05;6.13;;;4.93;;
13331;SDS011;6735;51.456;12.626;2024-01-30T09:16:30;9.33;;;4.90;;
13331;SDS011;6735;51.456;12.626;2024-01-30T09:18:56;7.97;;;4.90;;
13331;SDS011;6735;51.456;12.626;2024-01-30T09:21:21;8.70;;;5.13;;
13331;SDS011;6735;51.456;12.626;2024-01-30T09:23:47;6.03;;;5.33;;
13331;SDS011;6735;51.456;12.626;2024-01-30T09:26:12;8.27;;;5.00;;
13331;SDS011;6735;51.456;12.626;2024-01-30T09:28:38;7.30;;;6.03;;
13331;SDS011;6735;51.456;12.626;2024-01-30T09:31:03;6.90;;;5.50;;
13331;SDS011;6735;51.456;12.626;2024-01-30T09:33:29;8.13;;;5.93;;
13331;SDS011;6735;51.456;12.626;2024-01-30T09:35:54;5.90;;;5.30;;
13331;SDS011;6735;51.456;12.626;2024-01-30T09:38:20;7.37;;;5.33;;
13331;SDS011;6735;51.456;12.626;2024-01-30T09:40:46;5.23;;;4.73;;
13331;SDS011;6735;51.456;12.626;2024-01-30T09:43:18;7.73;;;5.27;;
13331;SDS011;6735;51.456;12.626;2024-01-30T09:45:47;9.80;;;5.33;;
13331;SDS011;6735;51.456;12.626;2024-01-30T09:48:14;9.10;;;5.60;;
13331;SDS011;6735;51.456;12.626;2024-01-30T09:50:40;6.60;;;5.00;;
13331;SDS011;6735;51.456;12.626;2024-01-30T09:53:06;7.30;;;4.90;;
13331;SDS011;6735;51.456;12.626;2024-01-30T09:55:33;6.43;;;5.27;;
13331;SDS011;6735;51.456;12.626;2024-01-30T09:58:00;10.43;;;5.43;;
13331;SDS011;6735;51.456;12.626;2024-01-30T10:00:26;6.47;;;5.77;;
13331;SDS011;6735;51.456;12.626;2024-01-30T10:02:52;9.47;;;5.67;;
13331;SDS011;6735;51.456;12.626;2024-01-30T10:05:18;7.17;;;5.60;;
13331;SDS011;6735;51.456;12.626;2024-01-30T10:07:54;10.87;;;5.50;;
13331;SDS011;6735;51.456;12.626;2024-01-30T10:10:22;6.93;;;4.90;;
13331;SDS011;6735;51.456;12.626;2024-01-30T10:12:48;7.97;;;5.20;;
13331;SDS011;6735;51.456;12.626;2024-01-30T10:15:14;7.83;;;5.90;;
13331;SDS011;6735;51.456;12.626;2024-01-30T10:17:39;7.77;;;5.73;;
13331;SDS011;6735;51.456;12.626;2024-01-30T10:20:05;8.27;;;5.33;;
13331;SDS011;6735;51.456;12.626;2024-01-30T10:22:32;7.27;;;5.93;;
13331;SDS011;6735;51.456;12.626;2024-01-30T10:24:58;6.13;;;5.20;;
13331;SDS011;6735;51.456;12.626;2024-01-30T10:27:25;7.57;;;5.13;;
13331;SDS011;6735;51.456;12.626;2024-01-30T10:29:52;10.40;;;5.70;;
13331;SDS011;6735;51.456;12.626;2024-01-30T10:32:17;9.47;;;5.83;;
13331;SDS011;6735;51.456;12.626;2024-01-30T10:34:44;8.10;;;5.63;;
13331;SDS011;6735;51.456;12.626;2024-01-30T10:37:10;7.50;;;5.53;;
13331;SDS011;6735;51.456;12.626;2024-01-30T10:39:43;10.13;;;5.40;;
13331;SDS011;6735;51.456;12.626;2024-01-30T10:42:13;9.10;;;5.90;;
13331;SDS011;6735;51.456;12.626;2024-01-30T10:44:44;7.80;;;6.00;;
13331;SDS011;6735;51.456;12.626;2024-01-30T10:47:27;7.57;;;5.53;;
13331;SDS011;6735;51.456;12.626;2024-01-30T10:49:54;9.00;;;5.97;;
13331;SDS011;6735;51.456;12.626;2024-01-30T10:52:20;7.83;;;5.67;;
13331;SDS011;6735;51.456;12.626;2024-01-30T10:54:48;6.37;;;5.60;;
13331;SDS011;6735;51.456;12.626;2024-01-30T10:57:16;8.37;;;5.50;;
13331;SDS011;6735;51.456;12.626;2024-01-30T10:59:42;10.07;;;6.30;;
13331;SDS011;6735;51.456;12.626;2024-01-30T11:02:08;9.93;;;5.83;;
13331;SDS011;6735;51.456;12.626;2024-01-30T11:04:39;8.17;;;6.23;;
13331;SDS011;6735;51.456;12.626;2024-01-30T11:07:16;8.73;;;6.23;;
13331;SDS011;6735;51.456;12.626;2024-01-30T11:09:48;7.87;;;6.17;;
13331;SDS011;6735;51.456;12.626;2024-01-30T11:12:15;8.67;;;6.07;;
13331;SDS011;6735;51.456;12.626;2024-01-30T11:14:41;11.90;;;5.70;;
13331;SDS011;6735;51.456;12.626;2024-01-30T11:17:08;7.23;;;5.67;;
13331;SDS011;6735;51.456;12.626;2024-01-30T11:19:37;9.73;;;6.20;;
13331;SDS011;6735;51.456;12.626;2024-01-30T11:22:02;9.80;;;6.20;;
13331;SDS011;6735;51.456;12.626;2024-01-30T11:24:29;7.17;;;5.33;;
13331;SDS011;6735;51.456;12.626;2024-01-30T11:26:55;6.10;;;5.47;;
13331;SDS011;6735;51.456;12.626;2024-01-30T11:29:29;6.47;;;5.77;;
13331;SDS011;6735;51.456;12.626;2024-01-30T11:31:55;7.07;;;5.77;;
13331;SDS011;6735;51.456;12.626;2024-01-30T11:34:24;8.13;;;6.17;;
13331;SDS011;6735;51.456;12.626;2024-01-30T11:36:53;11.93;;;5.87;;
13331;SDS011;6735;51.456;12.626;2024-01-30T11:39:24;11.70;;;7.40;;
13331;SDS011;6735;51.456;12.626;2024-01-30T11:41:56;9.60;;;7.17;;
13331;SDS011;6735;51.456;12.626;2024-01-30T11:44:23;8.33;;;5.27;;
13331;SDS011;6735;51.456;12.626;2024-01-30T11:46:49;9.07;;;6.07;;
13331;SDS011;6735;51.456;12.626;2024-01-30T11:49:16;8.33;;;5.50;;
13331;SDS011;6735;51.456;12.626;2024-01-30T11:51:42;10.30;;;7.07;;
13331;SDS011;6735;51.456;12.626;2024-01-30T11:54:08;6.90;;;5.57;;
13331;SDS011;6735;51.456;12.626;2024-01-30T11:56:33;8.10;;;5.53;;
13331;SDS011;6735;51.456;12.626;2024-01-30T11:58:59;6.83;;;5.93;;
13331;SDS011;6735;51.456;12.626;2024-01-30T12:01:26;9.10;;;6.33;;
13331;SDS011;6735;51.456;12.626;2024-01-30T12:03:52;10.77;;;5.87;;
13331;SDS011;6735;51.456;12.626;2024-01-30T12:06:17;8.27;;;6.40;;
13331;SDS011;6735;51.456;12.626;2024-01-30T12:08:43;8.83;;;6.37;;
13331;SDS011;6735;51.456;12.626;2024-01-30T12:11:28;8.77;;;5.83;;
13331;SDS011;6735;51.456;12.626;2024-01-30T12:13:55;7.80;;;5.70;;
13331;SDS011;6735;51.456;12.626;2024-01-30T12:16:21;8.43;;;6.73;;
13331;SDS011;6735;51.456;12.626;2024-01-30T12:18:47;7.77;;;6.20;;
13331;SDS011;6735;51.456;12.626;2024-01-30T12:21:15;7.97;;;5.83;;
13331;SDS011;6735;51.456;12.626;2024-01-30T12:23:42;11.27;;;6.30;;
13331;SDS011;6735;51.456;12.626;2024-01-30T12:26:07;9.03;;;5.77;;
13331;SDS011;6735;51.456;12.626;2024-01-30T12:28:33;9.03;;;5.90;;
13331;SDS011;6735;51.456;12.626;2024-01-30T12:31:02;9.10;;;6.50;;
13331;SDS011;6735;51.456;12.626;2024-01-30T12:33:28;8.63;;;5.87;;
13331;SDS011;6735;51.456;12.626;2024-01-30T12:35:55;10.33;;;6.73;;
13331;SDS011;6735;51.456;12.626;2024-01-30T12:38:21;10.53;;;7.60;;
13331;SDS011;6735;51.456;12.626;2024-01-30T12:40:48;8.30;;;5.60;;
13331;SDS011;6735;51.456;12.626;2024-01-30T12:43:14;12.50;;;7.60;;
13331;SDS011;6735;51.456;12.626;2024-01-30T12:45:41;7.97;;;6.30;;
13331;SDS011;6735;51.456;12.626;2024-01-30T12:48:06;10.30;;;6.43;;
13331;SDS011;6735;51.456;12.626;2024-01-30T12:50:32;7.43;;;6.13;;
13331;SDS011;6735;51.456;12.626;2024-01-30T12:52:58;11.03;;;6.57;;
13331;SDS011;6735;51.456;12.626;2024-01-30T12:55:23;8.40;;;5.60;;
13331;SDS011;6735;51.456;12.626;2024-01-30T12:57:49;8.80;;;6.27;;
13331;SDS011;6735;51.456;12.626;2024-01-30T13:00:15;9.03;;;6.53;;
13331;SDS011;6735;51.456;12.626;2024-01-30T13:02:42;7.83;;;6.20;;
13331;SDS011;6735;51.456;12.626;2024-01-30T13:05:09;8.93;;;6.33;;
13331;SDS011;6735;51.456;12.626;2024-01-30T13:07:35;9.53;;;6.10;;
13331;SDS011;6735;51.456;12.626;2024-01-30T13:10:00;7.53;;;6.10;;
13331;SDS011;6735;51.456;12.626;2024-01-30T13:12:28;7.70;;;6.00;;
13331;SDS011;6735;51.456;12.626;2024-01-30T13:14:54;11.63;;;5.80;;
13331;SDS011;6735;51.456;12.626;2024-01-30T13:17:19;9.40;;;6.07;;
13331;SDS011;6735;51.456;12.626;2024-01-30T13:19:45;7.57;;;5.67;;
13331;SDS011;6735;51.456;12.626;2024-01-30T13:22:10;8.73;;;5.83;;
13331;SDS011;6735;51.456;12.626;2024-01-30T13:24:36;8.00;;;6.10;;
13331;SDS011;6735;51.456;12.626;2024-01-30T13:27:02;6.80;;;5.50;;
13331;SDS011;6735;51.456;12.626;2024-01-30T13:29:30;10.37;;;6.27;;
13331;SDS011;6735;51.456;12.626;2024-01-30T13:31:56;8.93;;;5.67;;
13331;SDS011;6735;51.456;12.626;2024-01-30T13:34:21;7.73;;;5.63;;
13331;SDS011;6735;51.456;12.626;2024-01-30T13:36:46;8.00;;;5.40;;
13331;SDS011;6735;51.456;12.626;2024-01-30T13:39:13;8.87;;;6.10;;
13331;SDS011;6735;51.456;12.626;2024-01-30T13:41:39;7.90;;;5.77;;
13331;SDS011;6735;51.456;12.626;2024-01-30T13:44:06;8.90;;;6.33;;
13331;SDS011;6735;51.456;12.626;2024-01-30T13:46:31;9.17;;;5.80;;
13331;SDS011;6735;51.456;12.626;2024-01-30T13:48:57;7.50;;;5.43;;
13331;SDS011;6735;51.456;12.626;2024-01-30T13:51:23;8.30;;;5.97;;
13331;SDS011;6735;51.456;12.626;2024-01-30T13:53:48;7.73;;;5.83;;
13331;SDS011;6735;51.456;12.626;2024-01-30T13:56:15;9.17;;;5.27;;
13331;SDS011;6735;51.456;12.626;2024-01-30T13:58:40;8.87;;;5.90;;
13331;SDS011;6735;51.456;12.626;2024-01-30T14:01:06;9.70;;;5.60;;
13331;SDS011;6735;51.456;12.626;2024-01-30T14:03:31;8.03;;;6.53;;
13331;SDS011;6735;51.456;12.626;2024-01-30T14:05:57;6.67;;;5.57;;
13331;SDS011;6735;51.456;12.626;2024-01-30T14:08:23;8.60;;;5.90;;
13331;SDS011;6735;51.456;12.626;2024-01-30T14:10:51;8.87;;;6.40;;
13331;SDS011;6735;51.456;12.626;2024-01-30T14:13:17;9.90;;;6.03;;
13331;SDS011;6735;51.456;12.626;2024-01-30T14:15:42;6.33;;;5.73;;
13331;SDS011;6735;51.456;12.626;2024-01-30T14:18:08;8.47;;;6.40;;
13331;SDS011;6735;51.456;12.626;2024-01-30T14:20:34;6.50;;;5.70;;
13331;SDS011;6735;51.456;12.626;2024-01-30T14:22:59;8.20;;;6.37;;
13331;SDS011;6735;51.456;12.626;2024-01-30T14:25:25;8.17;;;6.10;;
13331;SDS011;6735;51.456;12.626;2024-01-30T14:27:51;7.50;;;6.43;;
13331;SDS011;6735;51.456;12.626;2024-01-30T14:30:16;10.03;;;6.47;;
13331;SDS011;6735;51.456;12.626;2024-01-30T14:32:42;8.20;;;6.83;;
13331;SDS011;6735;51.456;12.626;2024-01-30T14:35:09;9.03;;;6.03;;
13331;SDS011;6735;51.456;12.626;2024-01-30T14:37:35;11.77;;;6.50;;
13331;SDS011;6735;51.456;12.626;2024-01-30T14:40:01;10.30;;;6.97;;